sensor_id;sensor_type;location;lat;lon;timestamp;P1;durP1;ratioP1;P2;durP2;ratioP2
56363;SDS011;42261;52.094;4.326;2022-10-26T00:01:21;5.22;;;2.95;;
56363;SDS011;42261;52.094;4.326;2022-10-26T00:04:06;8.80;;;2.50;;
56363;SDS011;42261;52.094;4.326;2022-10-26T00:06:50;5.80;;;2.72;;
56363;SDS011;42261;52.094;4.326;2022-10-26T00:09:36;6.32;;;2.80;;
56363;SDS011;42261;52.094;4.326;2022-10-26T00:12:20;6.82;;;2.75;;
56363;SDS011;42261;52.094;4.326;2022-10-26T00:15:04;7.43;;;3.08;;
56363;SDS011;42261;52.094;4.326;2022-10-26T00:17:49;9.48;;;3.13;;
56363;SDS011;42261;52.094;4.326;2022-10-26T00:20:33;6.47;;;2.50;;
56363;SDS011;42261;52.094;4.326;2022-10-26T00:23:17;5.57;;;3.20;;
56363;SDS011;42261;52.094;4.326;2022-10-26T00:26:01;7.10;;;3.00;;
56363;SDS011;42261;52.094;4.326;2022-10-26T00:28:46;5.70;;;2.90;;
56363;SDS011;42261;52.094;4.326;2022-10-26T00:31:31;4.68;;;2.85;;
56363;SDS011;42261;52.094;4.326;2022-10-26T00:34:16;4.82;;;2.63;;
56363;SDS011;42261;52.094;4.326;2022-10-26T00:37:01;7.65;;;2.53;;
56363;SDS011;42261;52.094;4.326;2022-10-26T00:39:45;6.95;;;2.83;;
56363;SDS011;42261;52.094;4.326;2022-10-26T00:42:28;6.38;;;2.67;;
56363;SDS011;42261;52.094;4.326;2022-10-26T00:45:20;4.43;;;2.45;;
56363;SDS011;42261;52.094;4.326;2022-10-26T00:48:09;6.75;;;2.90;;
56363;SDS011;42261;52.094;4.326;2022-10-26T00:50:59;8.27;;;3.28;;
56363;SDS011;42261;52.094;4.326;2022-10-26T00:53:44;6.82;;;3.38;;
56363;SDS011;42261;52.094;4.326;2022-10-26T00:56:28;5.55;;;2.80;;
56363;SDS011;42261;52.094;4.326;2022-10-26T00:59:13;5.28;;;3.05;;
56363;SDS011;42261;52.094;4.326;2022-10-26T01:01:58;6.38;;;3.13;;
56363;SDS011;42261;52.094;4.326;2022-10-26T01:04:43;10.10;;;3.17;;
56363;SDS011;42261;52.094;4.326;2022-10-26T01:07:28;6.65;;;2.90;;
56363;SDS011;42261;52.094;4.326;2022-10-26T01:10:12;5.32;;;2.97;;
56363;SDS011;42261;52.094;4.326;2022-10-26T01:12:59;7.22;;;4.22;;
56363;SDS011;42261;52.094;4.326;2022-10-26T01:27:37;4.80;;;2.42;;
56363;SDS011;42261;52.094;4.326;2022-10-26T01:36:28;5.38;;;2.50;;
56363;SDS011;42261;52.094;4.326;2022-10-26T01:39:19;7.88;;;2.58;;
56363;SDS011;42261;52.094;4.326;2022-10-26T01:42:09;8.75;;;3.20;;
56363;SDS011;42261;52.094;4.326;2022-10-26T01:45:03;6.22;;;2.63;;
56363;SDS011;42261;52.094;4.326;2022-10-26T01:47:50;6.18;;;3.08;;
56363;SDS011;42261;52.094;4.326;2022-10-26T01:50:35;8.20;;;3.00;;
56363;SDS011;42261;52.094;4.326;2022-10-26T01:53:20;9.98;;;3.20;;
56363;SDS011;42261;52.094;4.326;2022-10-26T01:56:04;6.10;;;2.78;;
56363;SDS011;42261;52.094;4.326;2022-10-26T01:58:57;8.25;;;2.70;;
56363;SDS011;42261;52.094;4.326;2022-10-26T02:07:46;6.28;;;2.60;;
56363;SDS011;42261;52.094;4.326;2022-10-26T02:13:53;3.65;;;2.65;;
56363;SDS011;42261;52.094;4.326;2022-10-26T02:19:43;5.57;;;2.72;;
56363;SDS011;42261;52.094;4.326;2022-10-26T02:25:25;5.05;;;2.53;;
56363;SDS011;42261;52.094;4.326;2022-10-26T02:28:12;7.13;;;3.13;;
56363;SDS011;42261;52.094;4.326;2022-10-26T02:30:58;7.43;;;2.95;;
56363;SDS011;42261;52.094;4.326;2022-10-26T02:33:45;6.53;;;2.60;;
56363;SDS011;42261;52.094;4.326;2022-10-26T02:36:32;7.65;;;2.78;;
56363;SDS011;42261;52.094;4.326;2022-10-26T02:39:17;10.30;;;2.83;;
56363;SDS011;42261;52.094;4.326;2022-10-26T02:42:03;6.43;;;3.05;;
56363;SDS011;42261;52.094;4.326;2022-10-26T02:44:53;7.45;;;2.42;;
56363;SDS011;42261;52.094;4.326;2022-10-26T02:47:37;6.80;;;2.80;;
56363;SDS011;42261;52.094;4.326;2022-10-26T02:50:32;3.35;;;2.40;;
56363;SDS011;42261;52.094;4.326;2022-10-26T02:56:10;6.05;;;2.95;;
56363;SDS011;42261;52.094;4.326;2022-10-26T02:59:01;9.32;;;2.65;;
56363;SDS011;42261;52.094;4.326;2022-10-26T03:01:47;9.10;;;2.70;;
56363;SDS011;42261;52.094;4.326;2022-10-26T03:04:33;6.72;;;2.78;;
56363;SDS011;42261;52.094;4.326;2022-10-26T03:07:22;4.43;;;2.80;;
56363;SDS011;42261;52.094;4.326;2022-10-26T03:10:06;7.68;;;3.10;;
56363;SDS011;42261;52.094;4.326;2022-10-26T03:12:50;6.75;;;2.60;;
56363;SDS011;42261;52.094;4.326;2022-10-26T03:15:35;4.28;;;2.53;;
56363;SDS011;42261;52.094;4.326;2022-10-26T03:18:19;6.20;;;2.92;;
56363;SDS011;42261;52.094;4.326;2022-10-26T03:21:03;10.90;;;2.97;;
56363;SDS011;42261;52.094;4.326;2022-10-26T03:23:47;6.18;;;2.58;;
56363;SDS011;42261;52.094;4.326;2022-10-26T03:26:33;5.10;;;2.65;;
56363;SDS011;42261;52.094;4.326;2022-10-26T03:29:17;7.90;;;2.55;;
56363;SDS011;42261;52.094;4.326;2022-10-26T03:32:01;6.80;;;2.78;;
56363;SDS011;42261;52.094;4.326;2022-10-26T03:34:46;4.97;;;2.95;;
56363;SDS011;42261;52.094;4.326;2022-10-26T03:37:30;8.30;;;3.60;;
56363;SDS011;42261;52.094;4.326;2022-10-26T03:40:13;7.13;;;3.25;;
56363;SDS011;42261;52.094;4.326;2022-10-26T03:42:57;6.45;;;2.85;;
56363;SDS011;42261;52.094;4.326;2022-10-26T03:45:42;7.15;;;2.58;;
56363;SDS011;42261;52.094;4.326;2022-10-26T03:48:26;4.50;;;2.60;;
56363;SDS011;42261;52.094;4.326;2022-10-26T03:51:10;8.05;;;3.42;;
56363;SDS011;42261;52.094;4.326;2022-10-26T03:53:54;10.65;;;2.97;;
56363;SDS011;42261;52.094;4.326;2022-10-26T03:56:38;6.78;;;2.80;;
56363;SDS011;42261;52.094;4.326;2022-10-26T03:59:23;7.43;;;3.08;;
56363;SDS011;42261;52.094;4.326;2022-10-26T04:02:06;6.68;;;3.03;;
56363;SDS011;42261;52.094;4.326;2022-10-26T04:04:50;6.25;;;2.70;;
56363;SDS011;42261;52.094;4.326;2022-10-26T04:07:34;5.68;;;2.60;;
56363;SDS011;42261;52.094;4.326;2022-10-26T04:10:18;6.65;;;2.55;;
56363;SDS011;42261;52.094;4.326;2022-10-26T04:13:03;5.68;;;3.20;;
56363;SDS011;42261;52.094;4.326;2022-10-26T04:15:47;7.97;;;2.85;;
56363;SDS011;42261;52.094;4.326;2022-10-26T04:18:31;8.75;;;2.67;;
56363;SDS011;42261;52.094;4.326;2022-10-26T04:21:15;6.55;;;2.60;;
56363;SDS011;42261;52.094;4.326;2022-10-26T04:23:59;5.63;;;2.53;;
56363;SDS011;42261;52.094;4.326;2022-10-26T04:26:42;8.05;;;2.95;;
56363;SDS011;42261;52.094;4.326;2022-10-26T04:29:27;8.13;;;2.83;;
56363;SDS011;42261;52.094;4.326;2022-10-26T04:32:12;9.10;;;3.08;;
56363;SDS011;42261;52.094;4.326;2022-10-26T04:34:56;6.05;;;2.55;;
56363;SDS011;42261;52.094;4.326;2022-10-26T04:37:40;7.75;;;2.67;;
56363;SDS011;42261;52.094;4.326;2022-10-26T04:40:24;10.65;;;2.88;;
56363;SDS011;42261;52.094;4.326;2022-10-26T04:43:08;4.78;;;3.13;;
56363;SDS011;42261;52.094;4.326;2022-10-26T04:45:55;6.07;;;2.63;;
56363;SDS011;42261;52.094;4.326;2022-10-26T04:48:40;4.80;;;2.47;;
56363;SDS011;42261;52.094;4.326;2022-10-26T04:51:25;9.65;;;2.70;;
56363;SDS011;42261;52.094;4.326;2022-10-26T04:54:09;6.70;;;2.78;;
56363;SDS011;42261;52.094;4.326;2022-10-26T04:56:53;6.28;;;2.80;;
56363;SDS011;42261;52.094;4.326;2022-10-26T04:59:37;5.50;;;2.30;;
56363;SDS011;42261;52.094;4.326;2022-10-26T05:02:22;4.90;;;2.55;;
56363;SDS011;42261;52.094;4.326;2022-10-26T05:05:05;5.95;;;2.80;;
56363;SDS011;42261;52.094;4.326;2022-10-26T05:07:53;8.35;;;3.30;;
56363;SDS011;42261;52.094;4.326;2022-10-26T05:10:39;5.72;;;2.80;;
56363;SDS011;42261;52.094;4.326;2022-10-26T05:13:23;5.45;;;2.78;;
56363;SDS011;42261;52.094;4.326;2022-10-26T05:16:08;5.82;;;2.38;;
56363;SDS011;42261;52.094;4.326;2022-10-26T05:18:52;6.93;;;2.88;;
56363;SDS011;42261;52.094;4.326;2022-10-26T05:21:36;6.20;;;2.90;;
56363;SDS011;42261;52.094;4.326;2022-10-26T05:24:20;5.63;;;2.53;;
56363;SDS011;42261;52.094;4.326;2022-10-26T05:27:04;6.68;;;2.88;;
56363;SDS011;42261;52.094;4.326;2022-10-26T05:29:48;4.63;;;2.30;;
56363;SDS011;42261;52.094;4.326;2022-10-26T05:32:32;6.60;;;2.72;;
56363;SDS011;42261;52.094;4.326;2022-10-26T05:35:16;3.80;;;2.40;;
56363;SDS011;42261;52.094;4.326;2022-10-26T05:38:12;6.95;;;2.63;;
56363;SDS011;42261;52.094;4.326;2022-10-26T05:40:56;4.57;;;2.20;;
56363;SDS011;42261;52.094;4.326;2022-10-26T05:43:41;5.32;;;2.33;;
56363;SDS011;42261;52.094;4.326;2022-10-26T05:46:26;4.18;;;2.22;;
56363;SDS011;42261;52.094;4.326;2022-10-26T05:49:10;5.97;;;2.45;;
56363;SDS011;42261;52.094;4.326;2022-10-26T05:51:54;8.38;;;2.75;;
56363;SDS011;42261;52.094;4.326;2022-10-26T05:54:38;4.43;;;2.58;;
56363;SDS011;42261;52.094;4.326;2022-10-26T05:57:22;4.07;;;1.75;;
56363;SDS011;42261;52.094;4.326;2022-10-26T06:00:07;6.70;;;3.03;;
56363;SDS011;42261;52.094;4.326;2022-10-26T06:05:54;5.30;;;2.33;;
56363;SDS011;42261;52.094;4.326;2022-10-26T06:08:39;6.88;;;2.72;;
56363;SDS011;42261;52.094;4.326;2022-10-26T06:11:25;5.70;;;2.60;;
56363;SDS011;42261;52.094;4.326;2022-10-26T06:14:10;5.25;;;1.98;;
56363;SDS011;42261;52.094;4.326;2022-10-26T06:20:22;3.78;;;1.92;;
56363;SDS011;42261;52.094;4.326;2022-10-26T06:31:39;6.18;;;2.38;;
56363;SDS011;42261;52.094;4.326;2022-10-26T06:34:24;10.18;;;3.00;;
56363;SDS011;42261;52.094;4.326;2022-10-26T06:37:11;3.50;;;2.42;;
56363;SDS011;42261;52.094;4.326;2022-10-26T06:39:55;5.30;;;2.05;;
56363;SDS011;42261;52.094;4.326;2022-10-26T06:42:40;5.28;;;2.03;;
56363;SDS011;42261;52.094;4.326;2022-10-26T06:45:24;5.65;;;2.22;;
56363;SDS011;42261;52.094;4.326;2022-10-26T06:48:09;5.28;;;2.20;;
56363;SDS011;42261;52.094;4.326;2022-10-26T06:53:45;4.45;;;1.95;;
56363;SDS011;42261;52.094;4.326;2022-10-26T06:56:39;6.22;;;2.00;;
56363;SDS011;42261;52.094;4.326;2022-10-26T06:59:36;5.57;;;2.10;;
56363;SDS011;42261;52.094;4.326;2022-10-26T07:02:22;7.43;;;2.08;;
56363;SDS011;42261;52.094;4.326;2022-10-26T07:05:07;5.65;;;2.08;;
56363;SDS011;42261;52.094;4.326;2022-10-26T07:07:55;8.25;;;1.90;;
56363;SDS011;42261;52.094;4.326;2022-10-26T07:10:40;4.07;;;2.30;;
56363;SDS011;42261;52.094;4.326;2022-10-26T07:13:25;3.97;;;2.05;;
56363;SDS011;42261;52.094;4.326;2022-10-26T07:16:09;5.40;;;2.15;;
56363;SDS011;42261;52.094;4.326;2022-10-26T07:18:53;7.93;;;2.67;;
56363;SDS011;42261;52.094;4.326;2022-10-26T07:21:37;6.30;;;1.90;;
56363;SDS011;42261;52.094;4.326;2022-10-26T07:24:21;10.63;;;2.42;;
56363;SDS011;42261;52.094;4.326;2022-10-26T07:27:06;14.15;;;2.83;;
56363;SDS011;42261;52.094;4.326;2022-10-26T07:29:51;8.45;;;1.95;;
56363;SDS011;42261;52.094;4.326;2022-10-26T07:32:35;3.72;;;1.83;;
56363;SDS011;42261;52.094;4.326;2022-10-26T07:35:19;4.80;;;1.60;;
56363;SDS011;42261;52.094;4.326;2022-10-26T07:38:03;3.42;;;1.70;;
56363;SDS011;42261;52.094;4.326;2022-10-26T07:40:47;4.75;;;2.05;;
56363;SDS011;42261;52.094;4.326;2022-10-26T07:43:33;6.88;;;2.22;;
56363;SDS011;42261;52.094;4.326;2022-10-26T07:46:17;4.47;;;1.90;;
56363;SDS011;42261;52.094;4.326;2022-10-26T07:49:01;5.85;;;1.70;;
56363;SDS011;42261;52.094;4.326;2022-10-26T07:51:45;4.75;;;1.75;;
56363;SDS011;42261;52.094;4.326;2022-10-26T07:54:30;4.80;;;1.80;;
56363;SDS011;42261;52.094;4.326;2022-10-26T07:57:15;5.22;;;1.60;;
56363;SDS011;42261;52.094;4.326;2022-10-26T08:00:00;3.80;;;1.80;;
56363;SDS011;42261;52.094;4.326;2022-10-26T08:02:44;4.50;;;1.50;;
56363;SDS011;42261;52.094;4.326;2022-10-26T08:05:28;4.85;;;1.70;;
56363;SDS011;42261;52.094;4.326;2022-10-26T08:08:12;3.85;;;1.55;;
56363;SDS011;42261;52.094;4.326;2022-10-26T08:10:57;3.30;;;1.50;;
56363;SDS011;42261;52.094;4.326;2022-10-26T08:13:41;3.45;;;1.35;;
56363;SDS011;42261;52.094;4.326;2022-10-26T08:16:25;7.05;;;1.90;;
56363;SDS011;42261;52.094;4.326;2022-10-26T08:19:10;4.10;;;1.45;;
56363;SDS011;42261;52.094;4.326;2022-10-26T08:21:54;5.00;;;1.65;;
56363;SDS011;42261;52.094;4.326;2022-10-26T08:24:40;3.60;;;1.52;;
56363;SDS011;42261;52.094;4.326;2022-10-26T08:27:26;5.57;;;1.67;;
56363;SDS011;42261;52.094;4.326;2022-10-26T08:30:10;8.07;;;1.58;;
56363;SDS011;42261;52.094;4.326;2022-10-26T08:32:58;4.18;;;1.63;;
56363;SDS011;42261;52.094;4.326;2022-10-26T08:35:46;5.45;;;1.48;;
56363;SDS011;42261;52.094;4.326;2022-10-26T08:38:30;5.18;;;1.77;;
56363;SDS011;42261;52.094;4.326;2022-10-26T08:41:16;4.78;;;1.38;;
56363;SDS011;42261;52.094;4.326;2022-10-26T08:44:06;5.13;;;1.40;;
56363;SDS011;42261;52.094;4.326;2022-10-26T08:46:59;6.10;;;2.08;;
56363;SDS011;42261;52.094;4.326;2022-10-26T08:50:13;3.28;;;1.27;;
56363;SDS011;42261;52.094;4.326;2022-10-26T08:53:23;5.22;;;1.60;;
56363;SDS011;42261;52.094;4.326;2022-10-26T08:59:02;4.90;;;1.40;;
56363;SDS011;42261;52.094;4.326;2022-10-26T09:01:50;4.53;;;1.45;;
56363;SDS011;42261;52.094;4.326;2022-10-26T09:04:34;2.92;;;1.70;;
56363;SDS011;42261;52.094;4.326;2022-10-26T09:07:39;4.18;;;1.30;;
56363;SDS011;42261;52.094;4.326;2022-10-26T09:26:20;5.28;;;2.25;;
56363;SDS011;42261;52.094;4.326;2022-10-26T09:29:13;4.15;;;1.27;;
56363;SDS011;42261;52.094;4.326;2022-10-26T09:31:58;9.43;;;1.85;;
56363;SDS011;42261;52.094;4.326;2022-10-26T09:34:46;6.47;;;1.52;;
56363;SDS011;42261;52.094;4.326;2022-10-26T09:37:34;2.70;;;1.30;;
56363;SDS011;42261;52.094;4.326;2022-10-26T09:40:29;2.58;;;1.35;;
56363;SDS011;42261;52.094;4.326;2022-10-26T09:43:36;5.60;;;1.50;;
56363;SDS011;42261;52.094;4.326;2022-10-26T09:46:26;2.92;;;1.42;;
56363;SDS011;42261;52.094;4.326;2022-10-26T09:49:14;4.63;;;1.70;;
56363;SDS011;42261;52.094;4.326;2022-10-26T09:51:59;2.58;;;1.23;;
56363;SDS011;42261;52.094;4.326;2022-10-26T09:54:43;6.95;;;1.85;;
56363;SDS011;42261;52.094;4.326;2022-10-26T09:57:28;4.72;;;1.55;;
56363;SDS011;42261;52.094;4.326;2022-10-26T10:00:13;6.32;;;1.73;;
56363;SDS011;42261;52.094;4.326;2022-10-26T10:02:58;5.13;;;1.50;;
56363;SDS011;42261;52.094;4.326;2022-10-26T10:05:43;8.73;;;1.90;;
56363;SDS011;42261;52.094;4.326;2022-10-26T10:08:27;3.55;;;1.70;;
56363;SDS011;42261;52.094;4.326;2022-10-26T10:11:12;6.25;;;1.65;;
56363;SDS011;42261;52.094;4.326;2022-10-26T10:13:59;4.85;;;1.75;;
56363;SDS011;42261;52.094;4.326;2022-10-26T10:17:00;7.88;;;1.60;;
56363;SDS011;42261;52.094;4.326;2022-10-26T10:19:45;4.22;;;1.58;;
56363;SDS011;42261;52.094;4.326;2022-10-26T10:22:30;5.38;;;1.48;;
56363;SDS011;42261;52.094;4.326;2022-10-26T10:25:21;6.57;;;1.75;;
56363;SDS011;42261;52.094;4.326;2022-10-26T10:28:20;3.72;;;1.45;;
56363;SDS011;42261;52.094;4.326;2022-10-26T10:31:19;6.40;;;2.05;;
56363;SDS011;42261;52.094;4.326;2022-10-26T10:34:14;12.60;;;1.60;;
56363;SDS011;42261;52.094;4.326;2022-10-26T10:36:59;4.07;;;1.70;;
56363;SDS011;42261;52.094;4.326;2022-10-26T10:39:44;4.28;;;1.80;;
56363;SDS011;42261;52.094;4.326;2022-10-26T10:42:32;5.43;;;1.45;;
56363;SDS011;42261;52.094;4.326;2022-10-26T10:45:22;3.92;;;1.17;;
56363;SDS011;42261;52.094;4.326;2022-10-26T10:51:01;4.07;;;1.52;;
56363;SDS011;42261;52.094;4.326;2022-10-26T10:53:55;2.85;;;1.38;;
56363;SDS011;42261;52.094;4.326;2022-10-26T10:56:40;3.85;;;1.50;;
56363;SDS011;42261;52.094;4.326;2022-10-26T11:06:23;3.53;;;1.77;;
56363;SDS011;42261;52.094;4.326;2022-10-26T11:11:57;3.92;;;1.48;;
56363;SDS011;42261;52.094;4.326;2022-10-26T11:17:44;3.92;;;1.30;;
56363;SDS011;42261;52.094;4.326;2022-10-26T11:20:42;8.38;;;1.80;;
56363;SDS011;42261;52.094;4.326;2022-10-26T11:23:41;5.18;;;1.10;;
56363;SDS011;42261;52.094;4.326;2022-10-26T11:26:37;9.32;;;1.80;;
56363;SDS011;42261;52.094;4.326;2022-10-26T11:29:44;8.60;;;1.30;;
56363;SDS011;42261;52.094;4.326;2022-10-26T11:32:36;2.25;;;1.27;;
56363;SDS011;42261;52.094;4.326;2022-10-26T11:35:26;10.25;;;1.55;;
56363;SDS011;42261;52.094;4.326;2022-10-26T11:38:14;2.75;;;1.05;;
56363;SDS011;42261;52.094;4.326;2022-10-26T11:41:14;6.18;;;1.40;;
56363;SDS011;42261;52.094;4.326;2022-10-26T11:47:15;3.97;;;1.45;;
56363;SDS011;42261;52.094;4.326;2022-10-26T11:50:04;4.35;;;1.30;;
56363;SDS011;42261;52.094;4.326;2022-10-26T11:52:57;3.97;;;1.10;;
56363;SDS011;42261;52.094;4.326;2022-10-26T11:55:46;6.55;;;1.40;;
56363;SDS011;42261;52.094;4.326;2022-10-26T11:58:35;3.75;;;1.58;;
56363;SDS011;42261;52.094;4.326;2022-10-26T12:01:20;8.95;;;1.67;;
56363;SDS011;42261;52.094;4.326;2022-10-26T12:04:04;4.30;;;1.30;;
56363;SDS011;42261;52.094;4.326;2022-10-26T12:06:50;11.68;;;2.28;;
56363;SDS011;42261;52.094;4.326;2022-10-26T12:09:35;5.05;;;1.50;;
56363;SDS011;42261;52.094;4.326;2022-10-26T12:12:34;5.63;;;1.40;;
56363;SDS011;42261;52.094;4.326;2022-10-26T12:15:29;4.53;;;1.20;;
56363;SDS011;42261;52.094;4.326;2022-10-26T12:21:19;5.03;;;1.15;;
56363;SDS011;42261;52.094;4.326;2022-10-26T12:24:38;4.63;;;1.35;;
56363;SDS011;42261;52.094;4.326;2022-10-26T12:30:24;3.55;;;1.20;;
56363;SDS011;42261;52.094;4.326;2022-10-26T12:33:27;3.85;;;1.17;;
56363;SDS011;42261;52.094;4.326;2022-10-26T12:45:13;3.95;;;1.30;;
56363;SDS011;42261;52.094;4.326;2022-10-26T12:48:03;6.80;;;1.23;;
56363;SDS011;42261;52.094;4.326;2022-10-26T12:50:48;4.28;;;1.20;;
56363;SDS011;42261;52.094;4.326;2022-10-26T12:53:33;5.90;;;1.38;;
56363;SDS011;42261;52.094;4.326;2022-10-26T12:56:18;5.63;;;1.20;;
56363;SDS011;42261;52.094;4.326;2022-10-26T13:00:20;5.82;;;1.05;;
56363;SDS011;42261;52.094;4.326;2022-10-26T13:02:55;6.22;;;1.10;;
56363;SDS011;42261;52.094;4.326;2022-10-26T13:06:51;4.15;;;1.27;;
56363;SDS011;42261;52.094;4.326;2022-10-26T13:09:04;6.65;;;1.13;;
56363;SDS011;42261;52.094;4.326;2022-10-26T13:11:56;4.68;;;0.93;;
56363;SDS011;42261;52.094;4.326;2022-10-26T13:14:52;3.88;;;1.02;;
56363;SDS011;42261;52.094;4.326;2022-10-26T13:17:52;5.00;;;1.20;;
56363;SDS011;42261;52.094;4.326;2022-10-26T13:23:57;1.60;;;0.65;;
56363;SDS011;42261;52.094;4.326;2022-10-26T13:32:53;4.10;;;1.00;;
56363;SDS011;42261;52.094;4.326;2022-10-26T13:35:39;3.83;;;0.95;;
56363;SDS011;42261;52.094;4.326;2022-10-26T13:38:26;4.25;;;0.80;;
56363;SDS011;42261;52.094;4.326;2022-10-26T13:41:16;6.32;;;1.17;;
56363;SDS011;42261;52.094;4.326;2022-10-26T13:44:05;4.53;;;1.08;;
56363;SDS011;42261;52.094;4.326;2022-10-26T13:46:50;2.53;;;0.80;;
56363;SDS011;42261;52.094;4.326;2022-10-26T13:49:38;6.85;;;1.00;;
56363;SDS011;42261;52.094;4.326;2022-10-26T13:52:34;4.85;;;1.00;;
56363;SDS011;42261;52.094;4.326;2022-10-26T13:55:23;2.78;;;0.80;;
56363;SDS011;42261;52.094;4.326;2022-10-26T14:03:56;3.33;;;0.90;;
56363;SDS011;42261;52.094;4.326;2022-10-26T14:06:40;3.10;;;1.00;;
56363;SDS011;42261;52.094;4.326;2022-10-26T14:09:30;2.58;;;0.75;;
56363;SDS011;42261;52.094;4.326;2022-10-26T14:12:14;2.88;;;1.00;;
56363;SDS011;42261;52.094;4.326;2022-10-26T14:15:08;5.93;;;1.10;;
56363;SDS011;42261;52.094;4.326;2022-10-26T14:17:53;6.20;;;1.30;;
56363;SDS011;42261;52.094;4.326;2022-10-26T14:20:38;5.07;;;1.13;;
56363;SDS011;42261;52.094;4.326;2022-10-26T14:23:26;2.92;;;1.10;;
56363;SDS011;42261;52.094;4.326;2022-10-26T14:26:30;3.15;;;0.82;;
56363;SDS011;42261;52.094;4.326;2022-10-26T14:29:22;7.70;;;1.40;;
56363;SDS011;42261;52.094;4.326;2022-10-26T14:32:21;3.05;;;1.10;;
56363;SDS011;42261;52.094;4.326;2022-10-26T14:35:12;3.72;;;1.10;;
56363;SDS011;42261;52.094;4.326;2022-10-26T14:38:01;3.83;;;1.10;;
56363;SDS011;42261;52.094;4.326;2022-10-26T14:40:46;4.07;;;0.90;;
56363;SDS011;42261;52.094;4.326;2022-10-26T14:43:31;3.38;;;0.80;;
56363;SDS011;42261;52.094;4.326;2022-10-26T14:46:15;3.03;;;1.02;;
56363;SDS011;42261;52.094;4.326;2022-10-26T14:49:00;5.00;;;0.90;;
56363;SDS011;42261;52.094;4.326;2022-10-26T14:51:45;2.40;;;0.73;;
56363;SDS011;42261;52.094;4.326;2022-10-26T14:54:30;5.55;;;0.95;;
56363;SDS011;42261;52.094;4.326;2022-10-26T14:57:32;6.60;;;1.10;;
56363;SDS011;42261;52.094;4.326;2022-10-26T15:03:04;4.90;;;1.02;;
56363;SDS011;42261;52.094;4.326;2022-10-26T15:05:53;3.60;;;2.08;;
56363;SDS011;42261;52.094;4.326;2022-10-26T15:08:40;6.07;;;1.30;;
56363;SDS011;42261;52.094;4.326;2022-10-26T15:11:27;7.55;;;1.20;;
56363;SDS011;42261;52.094;4.326;2022-10-26T15:14:14;4.75;;;1.17;;
56363;SDS011;42261;52.094;4.326;2022-10-26T15:16:59;6.13;;;1.15;;
56363;SDS011;42261;52.094;4.326;2022-10-26T15:19:43;3.45;;;0.90;;
56363;SDS011;42261;52.094;4.326;2022-10-26T15:22:27;5.03;;;1.10;;
56363;SDS011;42261;52.094;4.326;2022-10-26T15:25:15;4.22;;;1.02;;
56363;SDS011;42261;52.094;4.326;2022-10-26T15:28:09;5.00;;;1.00;;
56363;SDS011;42261;52.094;4.326;2022-10-26T15:36:38;6.22;;;1.00;;
56363;SDS011;42261;52.094;4.326;2022-10-26T15:39:24;6.53;;;0.90;;
56363;SDS011;42261;52.094;4.326;2022-10-26T15:42:11;3.20;;;0.90;;
56363;SDS011;42261;52.094;4.326;2022-10-26T15:44:57;5.32;;;0.95;;
56363;SDS011;42261;52.094;4.326;2022-10-26T15:47:41;11.10;;;0.77;;
56363;SDS011;42261;52.094;4.326;2022-10-26T15:50:26;6.60;;;1.10;;
56363;SDS011;42261;52.094;4.326;2022-10-26T15:53:14;5.20;;;0.82;;
56363;SDS011;42261;52.094;4.326;2022-10-26T15:56:01;5.20;;;0.85;;
56363;SDS011;42261;52.094;4.326;2022-10-26T15:58:46;3.63;;;0.75;;
56363;SDS011;42261;52.094;4.326;2022-10-26T16:01:30;13.05;;;2.88;;
56363;SDS011;42261;52.094;4.326;2022-10-26T16:04:15;4.38;;;0.90;;
56363;SDS011;42261;52.094;4.326;2022-10-26T16:07:00;6.65;;;1.15;;
56363;SDS011;42261;52.094;4.326;2022-10-26T16:09:48;5.07;;;1.13;;
56363;SDS011;42261;52.094;4.326;2022-10-26T16:12:33;5.13;;;0.90;;
56363;SDS011;42261;52.094;4.326;2022-10-26T16:15:18;6.75;;;0.90;;
56363;SDS011;42261;52.094;4.326;2022-10-26T16:18:04;8.07;;;0.87;;
56363;SDS011;42261;52.094;4.326;2022-10-26T16:20:49;5.50;;;1.00;;
56363;SDS011;42261;52.094;4.326;2022-10-26T16:23:33;7.85;;;1.15;;
56363;SDS011;42261;52.094;4.326;2022-10-26T16:26:17;5.43;;;1.63;;
56363;SDS011;42261;52.094;4.326;2022-10-26T16:29:01;6.03;;;1.35;;
56363;SDS011;42261;52.094;4.326;2022-10-26T16:31:45;5.75;;;1.17;;
56363;SDS011;42261;52.094;4.326;2022-10-26T16:34:30;3.33;;;1.25;;
56363;SDS011;42261;52.094;4.326;2022-10-26T16:37:14;7.07;;;1.10;;
56363;SDS011;42261;52.094;4.326;2022-10-26T16:39:58;8.57;;;1.45;;
56363;SDS011;42261;52.094;4.326;2022-10-26T16:42:42;7.47;;;1.00;;
56363;SDS011;42261;52.094;4.326;2022-10-26T16:45:27;8.85;;;1.20;;
56363;SDS011;42261;52.094;4.326;2022-10-26T16:48:11;6.75;;;1.30;;
56363;SDS011;42261;52.094;4.326;2022-10-26T16:51:03;11.25;;;1.40;;
56363;SDS011;42261;52.094;4.326;2022-10-26T16:53:57;5.45;;;1.30;;
56363;SDS011;42261;52.094;4.326;2022-10-26T16:56:41;9.02;;;1.27;;
56363;SDS011;42261;52.094;4.326;2022-10-26T16:59:25;8.40;;;1.63;;
56363;SDS011;42261;52.094;4.326;2022-10-26T17:02:14;15.45;;;2.03;;
56363;SDS011;42261;52.094;4.326;2022-10-26T17:04:59;10.35;;;1.63;;
56363;SDS011;42261;52.094;4.326;2022-10-26T17:07:46;12.00;;;1.60;;
56363;SDS011;42261;52.094;4.326;2022-10-26T17:10:31;8.40;;;1.08;;
56363;SDS011;42261;52.094;4.326;2022-10-26T17:13:15;9.18;;;1.20;;
56363;SDS011;42261;52.094;4.326;2022-10-26T17:16:02;6.28;;;1.52;;
56363;SDS011;42261;52.094;4.326;2022-10-26T17:18:48;8.95;;;2.85;;
56363;SDS011;42261;52.094;4.326;2022-10-26T17:21:33;7.63;;;1.60;;
56363;SDS011;42261;52.094;4.326;2022-10-26T17:24:17;11.20;;;1.85;;
56363;SDS011;42261;52.094;4.326;2022-10-26T17:27:01;8.20;;;1.40;;
56363;SDS011;42261;52.094;4.326;2022-10-26T17:29:45;8.05;;;1.58;;
56363;SDS011;42261;52.094;4.326;2022-10-26T17:32:29;5.78;;;1.25;;
56363;SDS011;42261;52.094;4.326;2022-10-26T17:35:13;3.10;;;1.30;;
56363;SDS011;42261;52.094;4.326;2022-10-26T17:37:59;9.40;;;1.98;;
56363;SDS011;42261;52.094;4.326;2022-10-26T17:40:44;10.90;;;2.47;;
56363;SDS011;42261;52.094;4.326;2022-10-26T17:43:29;8.70;;;1.38;;
56363;SDS011;42261;52.094;4.326;2022-10-26T17:46:15;14.27;;;2.55;;
56363;SDS011;42261;52.094;4.326;2022-10-26T17:49:03;4.28;;;1.33;;
56363;SDS011;42261;52.094;4.326;2022-10-26T17:51:47;5.45;;;1.60;;
56363;SDS011;42261;52.094;4.326;2022-10-26T17:54:31;6.03;;;1.40;;
56363;SDS011;42261;52.094;4.326;2022-10-26T17:57:16;10.18;;;1.55;;
56363;SDS011;42261;52.094;4.326;2022-10-26T18:00:00;6.60;;;1.50;;
56363;SDS011;42261;52.094;4.326;2022-10-26T18:02:45;5.43;;;1.55;;
56363;SDS011;42261;52.094;4.326;2022-10-26T18:05:28;8.48;;;1.90;;
56363;SDS011;42261;52.094;4.326;2022-10-26T18:08:14;9.88;;;1.48;;
56363;SDS011;42261;52.094;4.326;2022-10-26T18:10:59;7.70;;;1.48;;
56363;SDS011;42261;52.094;4.326;2022-10-26T18:13:43;7.82;;;1.70;;
56363;SDS011;42261;52.094;4.326;2022-10-26T18:16:27;11.77;;;1.77;;
56363;SDS011;42261;52.094;4.326;2022-10-26T18:19:11;7.63;;;1.58;;
56363;SDS011;42261;52.094;4.326;2022-10-26T18:21:56;5.88;;;1.85;;
56363;SDS011;42261;52.094;4.326;2022-10-26T18:24:42;6.03;;;1.83;;
56363;SDS011;42261;52.094;4.326;2022-10-26T18:27:26;5.70;;;1.40;;
56363;SDS011;42261;52.094;4.326;2022-10-26T18:30:10;4.57;;;1.10;;
56363;SDS011;42261;52.094;4.326;2022-10-26T18:32:55;7.60;;;1.30;;
56363;SDS011;42261;52.094;4.326;2022-10-26T18:35:39;7.00;;;1.50;;
56363;SDS011;42261;52.094;4.326;2022-10-26T18:38:23;6.20;;;1.58;;
56363;SDS011;42261;52.094;4.326;2022-10-26T18:41:11;5.45;;;1.20;;
56363;SDS011;42261;52.094;4.326;2022-10-26T18:46:44;7.28;;;1.15;;
56363;SDS011;42261;52.094;4.326;2022-10-26T18:49:30;7.30;;;1.30;;
56363;SDS011;42261;52.094;4.326;2022-10-26T18:52:14;5.20;;;0.80;;
56363;SDS011;42261;52.094;4.326;2022-10-26T18:54:58;18.95;;;1.63;;
56363;SDS011;42261;52.094;4.326;2022-10-26T18:57:42;4.55;;;0.90;;
56363;SDS011;42261;52.094;4.326;2022-10-26T19:00:26;7.25;;;1.10;;